createdAt,value
2022-08-22T00:00:20.726Z,0.90
2022-08-22T00:02:47.979Z,2.00
2022-08-22T00:02:48.505Z,1.70
2022-08-22T00:02:54.108Z,1.10
2022-08-22T00:03:06.814Z,0.90
2022-08-22T00:05:56.044Z,1.00
2022-08-22T00:08:32.061Z,1.10
2022-08-22T00:11:12.331Z,1.10
2022-08-22T00:14:01.103Z,1.00
2022-08-22T00:16:54.612Z,1.10
2022-08-22T00:19:45.183Z,1.10
2022-08-22T00:22:28.670Z,1.20
2022-08-22T00:25:07.242Z,1.30
2022-08-22T00:28:06.363Z,1.10
2022-08-22T00:30:42.437Z,1.10
2022-08-22T00:33:29.072Z,1.10
2022-08-22T00:36:13.379Z,1.00
2022-08-22T00:38:49.020Z,0.90
2022-08-22T00:41:35.593Z,1.20
2022-08-22T00:44:17.274Z,1.10
2022-08-22T00:47:03.541Z,1.30
2022-08-22T00:49:51.148Z,1.00
2022-08-22T00:52:41.483Z,1.20
2022-08-22T00:55:41.057Z,0.80
2022-08-22T00:58:28.386Z,1.10
2022-08-22T01:01:03.493Z,1.10
2022-08-22T01:04:07.156Z,1.00
2022-08-22T01:06:49.551Z,1.10
2022-08-22T01:09:32.918Z,1.10
2022-08-22T01:12:32.323Z,1.20
2022-08-22T01:15:05.453Z,1.40
2022-08-22T01:17:44.275Z,1.40
2022-08-22T01:20:47.588Z,1.20
2022-08-22T01:23:40.558Z,1.20
2022-08-22T01:26:41.778Z,1.00
2022-08-22T01:29:28.512Z,1.10
2022-08-22T01:32:15.060Z,1.50
2022-08-22T01:34:56.401Z,1.40
2022-08-22T01:37:45.974Z,1.10
2022-08-22T01:40:25.685Z,1.00
2022-08-22T01:43:20.239Z,1.10
2022-08-22T01:46:06.795Z,1.30
2022-08-22T01:48:49.189Z,1.30
2022-08-22T01:51:45.808Z,1.00
2022-08-22T01:54:31.384Z,1.20
2022-08-22T01:57:03.183Z,1.00
2022-08-22T01:59:48.019Z,0.90
2022-08-22T02:02:23.720Z,1.20
2022-08-22T02:05:11.656Z,1.10
2022-08-22T02:08:21.745Z,1.20
2022-08-22T02:11:20.547Z,1.00
2022-08-22T02:14:13.433Z,1.00
2022-08-22T02:16:48.223Z,1.10
2022-08-22T02:19:15.626Z,0.90
2022-08-22T02:21:58.694Z,0.90
2022-08-22T02:24:38.177Z,1.00
2022-08-22T02:27:22.891Z,1.00
2022-08-22T02:30:14.725Z,1.00
2022-08-22T02:32:42.074Z,1.00
2022-08-22T02:35:26.598Z,1.00
2022-08-22T02:37:57.492Z,0.90
2022-08-22T02:40:32.366Z,1.00
2022-08-22T02:43:02.553Z,1.20
2022-08-22T02:45:50.947Z,0.90
2022-08-22T02:48:34.118Z,0.80
2022-08-22T02:51:33.839Z,0.90
2022-08-22T02:54:18.252Z,1.00
2022-08-22T02:57:06.865Z,1.20
2022-08-22T03:00:01.910Z,1.10
2022-08-22T03:02:38.651Z,0.90
2022-08-22T03:05:38.167Z,1.10
2022-08-22T03:08:12.981Z,1.10
2022-08-22T03:11:10.579Z,1.10
2022-08-22T03:13:41.246Z,1.00
2022-08-22T03:16:24.646Z,1.30
2022-08-22T03:19:08.405Z,1.00
2022-08-22T03:21:52.196Z,1.10
2022-08-22T03:24:26.632Z,1.00
2022-08-22T03:27:10.568Z,1.20
2022-08-22T03:29:45.846Z,1.20
2022-08-22T03:32:22.879Z,1.10
2022-08-22T03:35:01.904Z,1.10
2022-08-22T03:37:40.427Z,1.30
2022-08-22T03:40:31.484Z,1.20
2022-08-22T03:43:31.547Z,1.00
2022-08-22T03:46:28.302Z,1.10
2022-08-22T03:49:12.286Z,1.10
2022-08-22T03:51:58.487Z,1.30
2022-08-22T03:54:57.990Z,1.20
2022-08-22T03:57:31.414Z,0.80
2022-08-22T04:00:20.715Z,0.80
2022-08-22T04:03:04.869Z,1.00
2022-08-22T04:06:12.838Z,1.00
2022-08-22T04:08:58.620Z,1.10
2022-08-22T04:12:00.458Z,0.70
2022-08-22T04:14:59.524Z,1.10
2022-08-22T04:17:51.542Z,1.10
2022-08-22T04:20:42.358Z,1.30
2022-08-22T04:23:41.805Z,0.90
2022-08-22T04:26:17.304Z,1.00
2022-08-22T04:29:09.206Z,1.20
2022-08-22T04:31:46.335Z,1.20
2022-08-22T04:34:26.172Z,1.40
2022-08-22T04:37:04.341Z,1.10
2022-08-22T04:39:38.728Z,1.10
2022-08-22T04:42:36.681Z,0.80
2022-08-22T04:45:27.325Z,1.10
2022-08-22T04:48:00.412Z,1.20
2022-08-22T04:50:41.213Z,1.40
2022-08-22T04:53:10.575Z,1.00
2022-08-22T04:56:10.046Z,1.20
2022-08-22T04:58:58.275Z,1.10
2022-08-22T05:01:39.668Z,1.60
2022-08-22T05:04:25.461Z,1.40
2022-08-22T05:07:10.926Z,1.40
2022-08-22T05:09:44.589Z,1.20
2022-08-22T05:12:19.864Z,1.30
2022-08-22T05:14:54.509Z,1.30
2022-08-22T05:17:26.776Z,1.40
2022-08-22T05:20:00.347Z,1.50
2022-08-22T05:22:32.028Z,1.50
2022-08-22T05:25:05.154Z,1.60
2022-08-22T05:27:40.870Z,1.60
2022-08-22T05:30:15.971Z,1.70
2022-08-22T05:33:13.319Z,1.50
2022-08-22T05:35:58.251Z,1.60
2022-08-22T05:38:31.509Z,1.60
2022-08-22T05:41:18.319Z,1.60
2022-08-22T05:43:48.799Z,1.70
2022-08-22T05:46:27.135Z,1.60
2022-08-22T05:48:59.724Z,1.60
2022-08-22T05:51:38.310Z,1.40
2022-08-22T05:54:19.700Z,1.60
2022-08-22T05:56:54.735Z,1.50
2022-08-22T05:59:27.705Z,1.70
2022-08-22T06:02:13.813Z,1.90
2022-08-22T06:04:47.099Z,2.40
2022-08-22T06:07:16.878Z,1.80
2022-08-22T06:09:47.036Z,1.80
2022-08-22T06:12:27.925Z,1.40
2022-08-22T06:15:20.834Z,1.70
2022-08-22T06:17:55.279Z,1.60
2022-08-22T06:20:39.529Z,1.70
2022-08-22T06:23:08.912Z,1.80
2022-08-22T06:25:40.201Z,1.70
2022-08-22T06:28:11.516Z,1.90
2022-08-22T06:30:40.000Z,1.60
2022-08-22T06:33:12.592Z,1.80
2022-08-22T06:36:00.641Z,1.80
2022-08-22T06:38:35.480Z,1.90
2022-08-22T06:41:09.216Z,1.60
2022-08-22T06:43:43.168Z,2.20
2022-08-22T06:46:14.829Z,1.90
2022-08-22T06:48:44.542Z,1.80
2022-08-22T06:51:15.296Z,2.10
2022-08-22T06:53:48.457Z,1.90
2022-08-22T06:56:36.178Z,2.10
2022-08-22T06:59:11.966Z,2.10
2022-08-22T07:02:03.571Z,2.20
2022-08-22T07:04:31.602Z,2.10
2022-08-22T07:07:01.210Z,2.60
2022-08-22T07:09:37.093Z,2.40
2022-08-22T07:12:13.915Z,1.90
2022-08-22T07:14:44.982Z,1.90
2022-08-22T07:17:27.089Z,1.90
2022-08-22T07:20:26.767Z,2.10
2022-08-22T07:23:06.482Z,2.30
2022-08-22T07:25:59.727Z,2.40
2022-08-22T07:28:58.433Z,2.10
2022-08-22T07:31:37.309Z,2.00
2022-08-22T07:34:21.904Z,2.20
2022-08-22T07:37:10.881Z,2.60
2022-08-22T07:39:53.781Z,2.20
2022-08-22T07:42:36.248Z,2.30
2022-08-22T07:45:16.032Z,2.40
2022-08-22T07:47:52.578Z,2.60
2022-08-22T07:50:26.724Z,2.40
2022-08-22T07:53:13.506Z,2.40
2022-08-22T07:55:49.755Z,2.40
2022-08-22T07:58:19.822Z,2.60
2022-08-22T08:00:49.089Z,2.50
2022-08-22T08:03:20.622Z,2.20
2022-08-22T08:05:48.996Z,2.40
2022-08-22T08:08:36.259Z,2.20
2022-08-22T08:11:05.197Z,2.50
2022-08-22T08:13:42.639Z,2.50
2022-08-22T08:16:17.766Z,2.30
2022-08-22T08:18:48.411Z,2.20
2022-08-22T08:21:36.094Z,2.60
2022-08-22T08:24:07.823Z,2.50
2022-08-22T08:27:03.383Z,2.10
2022-08-22T08:29:32.241Z,2.80
2022-08-22T08:32:01.660Z,2.80
2022-08-22T08:34:34.701Z,2.70
2022-08-22T08:37:35.010Z,2.40
2022-08-22T08:40:18.646Z,2.90
2022-08-22T08:43:33.712Z,2.60
2022-08-22T08:46:27.877Z,2.90
2022-08-22T08:49:11.374Z,2.50
2022-08-22T08:51:57.702Z,2.60
2022-08-22T08:54:55.484Z,2.80
2022-08-22T08:57:37.842Z,3.10
2022-08-22T09:00:17.276Z,2.70
2022-08-22T09:03:01.227Z,2.90
2022-08-22T09:05:50.673Z,2.90
2022-08-22T09:08:42.349Z,3.80
2022-08-22T09:11:28.294Z,3.70
2022-08-22T09:14:27.283Z,3.10
2022-08-22T09:17:27.559Z,3.90
2022-08-22T09:20:17.868Z,3.10
2022-08-22T09:23:17.065Z,3.00
2022-08-22T09:25:50.907Z,3.00
2022-08-22T09:28:38.641Z,3.00
2022-08-22T09:31:16.898Z,3.50
2022-08-22T09:34:08.537Z,3.20
2022-08-22T09:36:45.219Z,2.80
2022-08-22T09:39:43.041Z,3.20
2022-08-22T09:42:29.657Z,2.70
2022-08-22T09:45:39.641Z,3.10
2022-08-22T09:48:23.853Z,3.00
2022-08-22T09:51:31.222Z,2.90
2022-08-22T09:54:32.885Z,3.20
2022-08-22T09:57:17.506Z,2.80
2022-08-22T09:59:58.171Z,3.00
2022-08-22T10:02:43.243Z,3.30
2022-08-22T10:05:41.063Z,3.00
2022-08-22T10:08:19.822Z,2.80
2022-08-22T10:11:19.843Z,4.00
2022-08-22T10:14:02.484Z,3.00
2022-08-22T10:17:07.401Z,2.90
2022-08-22T10:19:43.924Z,3.10
2022-08-22T10:22:44.715Z,3.40
2022-08-22T10:25:14.986Z,3.10
2022-08-22T10:28:05.015Z,3.10
2022-08-22T10:30:45.705Z,3.40
2022-08-22T10:33:31.648Z,3.10
2022-08-22T10:36:27.842Z,3.50
2022-08-22T10:38:59.344Z,3.20
2022-08-22T10:41:51.229Z,2.70
2022-08-22T10:44:38.539Z,3.10
2022-08-22T10:47:15.807Z,2.90
2022-08-22T10:49:53.424Z,2.50
2022-08-22T10:52:31.772Z,3.20
2022-08-22T10:55:14.170Z,2.90
2022-08-22T10:58:14.852Z,2.90
2022-08-22T11:00:52.634Z,3.10
2022-08-22T11:03:27.503Z,2.70
2022-08-22T11:06:01.411Z,3.10
2022-08-22T11:08:53.777Z,2.90
2022-08-22T11:11:37.171Z,3.10
2022-08-22T11:14:37.819Z,2.90
2022-08-22T11:17:30.273Z,3.30
2022-08-22T11:20:20.542Z,3.30
2022-08-22T11:23:16.398Z,3.40
2022-08-22T11:25:56.723Z,3.00
2022-08-22T11:28:44.608Z,3.30
2022-08-22T11:31:47.208Z,3.30
2022-08-22T11:34:34.490Z,3.20
2022-08-22T11:37:23.994Z,3.40
2022-08-22T11:40:41.913Z,3.10
2022-08-22T11:43:43.435Z,3.10
2022-08-22T11:46:19.926Z,3.20
2022-08-22T11:48:59.648Z,3.40
2022-08-22T11:52:00.843Z,4.00
2022-08-22T11:54:39.396Z,3.00
2022-08-22T11:57:28.687Z,3.60
2022-08-22T12:00:20.719Z,3.20
2022-08-22T12:03:12.561Z,3.50
2022-08-22T12:06:13.077Z,3.00
2022-08-22T12:08:51.711Z,3.60
2022-08-22T12:11:39.092Z,3.00
2022-08-22T12:14:18.039Z,3.40
2022-08-22T12:17:50.567Z,3.70
2022-08-22T12:20:25.141Z,3.90
2022-08-22T12:23:43.468Z,5.10
2022-08-22T12:26:35.137Z,3.90
2022-08-22T12:29:27.446Z,3.60
2022-08-22T12:32:27.418Z,4.00
2022-08-22T12:35:29.879Z,3.70
2022-08-22T12:38:29.411Z,3.70
2022-08-22T12:41:28.053Z,3.70
2022-08-22T12:44:34.524Z,3.50
2022-08-22T12:47:34.417Z,3.60
2022-08-22T12:50:38.373Z,3.80
2022-08-22T12:53:44.630Z,3.50
2022-08-22T12:56:18.268Z,3.60
2022-08-22T12:59:17.705Z,3.40
2022-08-22T13:01:49.599Z,3.60
2022-08-22T13:04:33.331Z,3.40
2022-08-22T13:07:33.638Z,3.40
2022-08-22T13:10:23.574Z,3.20
2022-08-22T13:12:56.776Z,3.10
2022-08-22T13:15:29.070Z,2.80
2022-08-22T13:18:18.944Z,3.40
2022-08-22T13:20:51.844Z,3.50
2022-08-22T13:23:30.604Z,3.50
2022-08-22T13:26:07.689Z,3.10
2022-08-22T13:28:45.633Z,3.20
2022-08-22T13:31:28.848Z,3.40
2022-08-22T13:34:39.961Z,3.40
2022-08-22T13:37:14.896Z,3.00
2022-08-22T13:39:49.088Z,3.40
2022-08-22T13:42:29.870Z,3.00
2022-08-22T13:45:05.328Z,2.60
2022-08-22T13:47:39.882Z,3.30
2022-08-22T13:50:20.593Z,2.70
2022-08-22T13:52:56.744Z,3.00
2022-08-22T13:55:42.963Z,2.60
2022-08-22T13:58:11.450Z,2.90
2022-08-22T14:01:01.363Z,3.00
2022-08-22T14:03:39.060Z,2.80
2022-08-22T14:06:35.206Z,3.00
2022-08-22T14:09:31.977Z,3.70
2022-08-22T14:12:24.351Z,3.00
2022-08-22T14:15:09.462Z,2.40
2022-08-22T14:17:44.627Z,3.10
2022-08-22T14:20:32.532Z,3.20
2022-08-22T14:23:10.327Z,3.80
2022-08-22T14:25:41.687Z,2.80
2022-08-22T14:28:27.522Z,3.10
2022-08-22T14:31:14.186Z,2.80
2022-08-22T14:33:49.039Z,2.50
2022-08-22T14:36:24.557Z,3.00
2022-08-22T14:39:10.040Z,2.80
2022-08-22T14:41:56.523Z,4.10
2022-08-22T14:44:35.961Z,3.40
2022-08-22T14:47:34.527Z,3.30
2022-08-22T14:50:09.480Z,3.00
2022-08-22T14:52:43.281Z,3.00
2022-08-22T14:55:15.546Z,2.50
2022-08-22T14:57:49.392Z,2.40
2022-08-22T15:00:41.527Z,2.50
2022-08-22T15:03:14.340Z,2.80
2022-08-22T15:06:05.897Z,2.70
2022-08-22T15:08:47.839Z,2.50
2022-08-22T15:11:47.235Z,2.70
2022-08-22T15:14:29.721Z,2.80
2022-08-22T15:17:01.452Z,3.10
2022-08-22T15:19:47.967Z,2.90
2022-08-22T15:22:27.671Z,2.90
2022-08-22T15:25:02.826Z,3.20
2022-08-22T15:27:35.926Z,5.00
2022-08-22T15:30:20.399Z,3.90
2022-08-22T15:32:49.222Z,3.70
2022-08-22T15:35:30.096Z,3.40
2022-08-22T15:38:26.335Z,3.60
2022-08-22T15:41:16.546Z,3.10
2022-08-22T15:43:49.250Z,4.00
2022-08-22T15:46:25.821Z,3.10
2022-08-22T15:49:05.380Z,3.10
2022-08-22T15:51:50.308Z,3.50
2022-08-22T15:54:24.804Z,13.90
2022-08-22T15:56:53.719Z,5.60
2022-08-22T15:59:54.306Z,3.40
2022-08-22T16:02:53.031Z,3.70
2022-08-22T16:05:26.080Z,3.50
2022-08-22T16:08:11.911Z,3.90
2022-08-22T16:10:43.110Z,3.40
2022-08-22T16:13:26.543Z,4.40
2022-08-22T16:15:57.414Z,3.60
2022-08-22T16:18:42.407Z,3.10
2022-08-22T16:21:31.455Z,3.40
2022-08-22T16:23:58.981Z,5.90
2022-08-22T16:26:29.270Z,4.60
2022-08-22T16:28:59.492Z,4.20
2022-08-22T16:31:43.078Z,3.90
2022-08-22T16:34:16.259Z,4.60
2022-08-22T16:37:10.300Z,5.30
2022-08-22T16:39:56.000Z,4.60
2022-08-22T16:42:27.548Z,6.20
2022-08-22T16:44:54.937Z,9.90
2022-08-22T16:47:41.585Z,10.40
2022-08-22T16:50:30.244Z,5.50
2022-08-22T16:53:04.535Z,12.10
2022-08-22T16:55:35.717Z,3.80
2022-08-22T16:58:32.458Z,3.50
2022-08-22T17:01:23.799Z,3.10
2022-08-22T17:04:07.997Z,3.80
2022-08-22T17:06:57.737Z,3.40
2022-08-22T17:09:53.980Z,3.10
2022-08-22T17:12:40.586Z,2.70
2022-08-22T17:15:39.985Z,2.50
2022-08-22T17:18:13.381Z,2.60
2022-08-22T17:20:49.443Z,2.40
2022-08-22T17:23:48.851Z,2.70
2022-08-22T17:26:28.608Z,2.40
2022-08-22T17:29:11.044Z,2.30
2022-08-22T17:31:53.504Z,2.30
2022-08-22T17:34:52.910Z,1.80
2022-08-22T17:37:22.945Z,2.40
2022-08-22T17:40:07.440Z,2.20
2022-08-22T17:42:49.385Z,1.90
2022-08-22T17:45:35.651Z,2.20
2022-08-22T17:48:24.755Z,2.10
2022-08-22T17:50:57.980Z,2.20
2022-08-22T17:53:45.147Z,2.10
2022-08-22T17:56:33.777Z,2.40
2022-08-22T17:59:09.422Z,2.20
2022-08-22T18:01:44.335Z,2.50
2022-08-22T18:04:47.402Z,1.90
2022-08-22T18:07:29.985Z,2.20
2022-08-22T18:10:14.476Z,1.90
2022-08-22T18:13:07.067Z,2.10
2022-08-22T18:15:47.874Z,1.70
2022-08-22T18:18:38.346Z,1.60
2022-08-22T18:21:18.393Z,1.80
2022-08-22T18:24:00.527Z,2.20
2022-08-22T18:26:51.605Z,2.00
2022-08-22T18:29:31.418Z,1.60
2022-08-22T18:32:12.489Z,2.10
2022-08-22T18:34:46.147Z,1.70
2022-08-22T18:37:41.733Z,1.80
2022-08-22T18:40:25.897Z,1.90
2022-08-22T18:43:25.927Z,2.10
2022-08-22T18:46:02.830Z,2.10
2022-08-22T18:49:12.073Z,1.70
2022-08-22T18:51:38.174Z,1.80
2022-08-22T18:54:06.831Z,1.80
2022-08-22T18:56:37.567Z,2.10
2022-08-22T18:59:08.099Z,1.70
2022-08-22T19:01:56.423Z,1.80
2022-08-22T19:04:40.180Z,1.70
2022-08-22T19:07:40.331Z,1.80
2022-08-22T19:10:16.931Z,1.70
2022-08-22T19:12:51.301Z,1.80
2022-08-22T19:15:33.576Z,1.80
2022-08-22T19:18:04.168Z,2.20
2022-08-22T19:20:55.009Z,1.70
2022-08-22T19:23:43.626Z,1.80
2022-08-22T19:26:30.197Z,2.00
2022-08-22T19:29:24.168Z,1.90
2022-08-22T19:31:59.064Z,2.50
2022-08-22T19:34:28.597Z,1.90
2022-08-22T19:37:32.135Z,2.10
2022-08-22T19:40:11.850Z,1.80
2022-08-22T19:42:43.024Z,2.10
2022-08-22T19:45:19.468Z,2.10
2022-08-22T19:47:59.761Z,2.50
2022-08-22T19:50:35.487Z,5.30
2022-08-22T19:53:24.535Z,3.80
2022-08-22T19:55:58.387Z,3.10
2022-08-22T19:59:00.618Z,3.40
2022-08-22T20:01:40.451Z,2.80
2022-08-22T20:04:11.058Z,2.60
2022-08-22T20:06:51.597Z,2.10
2022-08-22T20:09:51.040Z,2.10
2022-08-22T20:12:29.908Z,2.10
2022-08-22T20:14:57.673Z,2.00
2022-08-22T20:17:25.070Z,2.20
2022-08-22T20:20:29.743Z,2.40
2022-08-22T20:23:11.092Z,2.20
2022-08-22T20:25:49.499Z,2.10
2022-08-22T20:28:40.186Z,2.40
2022-08-22T20:31:18.992Z,2.10
2022-08-22T20:33:51.245Z,2.20
2022-08-22T20:36:27.626Z,2.00
2022-08-22T20:39:09.133Z,2.10
2022-08-22T20:41:49.811Z,2.20
2022-08-22T20:44:22.532Z,2.70
2022-08-22T20:47:08.486Z,2.50
2022-08-22T20:49:45.629Z,2.50
2022-08-22T20:52:31.646Z,2.50
2022-08-22T20:55:08.223Z,2.30
2022-08-22T20:57:45.923Z,2.20
2022-08-22T21:00:18.989Z,2.80
2022-08-22T21:02:56.804Z,2.60
2022-08-22T21:05:32.788Z,2.80
2022-08-22T21:08:15.399Z,2.90
2022-08-22T21:10:58.817Z,2.90
2022-08-22T21:13:36.386Z,3.60
2022-08-22T21:16:35.803Z,2.80
2022-08-22T21:19:03.317Z,2.80
2022-08-22T21:21:33.816Z,2.30
2022-08-22T21:24:06.678Z,2.60
2022-08-22T21:26:38.713Z,2.30
2022-08-22T21:29:08.787Z,2.60
2022-08-22T21:31:48.593Z,2.50
2022-08-22T21:34:33.962Z,2.80
2022-08-22T21:37:12.782Z,2.50
2022-08-22T21:39:50.137Z,2.80
2022-08-22T21:42:38.616Z,2.50
2022-08-22T21:45:28.033Z,2.70
2022-08-22T21:47:56.497Z,2.60
2022-08-22T21:50:23.929Z,2.50
2022-08-22T21:52:54.297Z,2.80
2022-08-22T21:55:21.695Z,2.80
2022-08-22T21:58:07.322Z,2.40
2022-08-22T22:00:59.011Z,2.60
2022-08-22T22:03:34.427Z,3.50
2022-08-22T22:06:05.297Z,2.80
2022-08-22T22:08:33.545Z,2.80
2022-08-22T22:11:06.210Z,2.70
2022-08-22T22:13:36.253Z,2.60
2022-08-22T22:16:06.713Z,2.30
2022-08-22T22:18:35.857Z,2.70
2022-08-22T22:21:03.751Z,2.60
2022-08-22T22:23:31.511Z,3.50
2022-08-22T22:26:03.036Z,2.50
2022-08-22T22:28:34.701Z,2.90
2022-08-22T22:31:03.486Z,2.90
2022-08-22T22:33:34.554Z,3.10
2022-08-22T22:36:18.591Z,2.60
2022-08-22T22:38:47.033Z,2.50
2022-08-22T22:41:14.590Z,3.00
2022-08-22T22:43:42.923Z,2.70
2022-08-22T22:46:10.499Z,3.20
2022-08-22T22:48:38.004Z,3.20
2022-08-22T22:51:11.133Z,2.70
2022-08-22T22:53:40.362Z,3.20
2022-08-22T22:56:22.210Z,2.80
2022-08-22T22:58:59.222Z,3.00
2022-08-22T23:02:02.462Z,3.30
2022-08-22T23:04:31.131Z,2.80
2022-08-22T23:06:58.682Z,2.90
2022-08-22T23:09:28.246Z,3.10
2022-08-22T23:12:06.743Z,2.90
2022-08-22T23:14:35.424Z,2.40
2022-08-22T23:17:03.603Z,2.90
2022-08-22T23:19:31.589Z,2.70
2022-08-22T23:22:00.940Z,3.20
2022-08-22T23:24:31.109Z,3.10
2022-08-22T23:26:59.893Z,2.80
2022-08-22T23:29:27.928Z,2.80
2022-08-22T23:31:59.077Z,2.80
2022-08-22T23:34:30.134Z,3.00
2022-08-22T23:37:01.894Z,2.90
2022-08-22T23:39:32.662Z,3.10
2022-08-22T23:42:02.161Z,3.10
2022-08-22T23:44:32.884Z,2.90
2022-08-22T23:47:00.681Z,3.10
2022-08-22T23:49:29.304Z,3.10
2022-08-22T23:51:57.965Z,3.10
2022-08-22T23:54:25.853Z,2.80
2022-08-22T23:56:56.329Z,3.30
2022-08-22T23:59:30.573Z,2.80
